Time,TemperatureF,DewpointF,PressureIn,WindDirection,WindDirectionDegrees,WindSpeedMPH,WindSpeedGustMPH,Humidity,HourlyPrecipIn,Conditions,Clouds,dailyrainin,SoftwareType,DateUTC
2013-07-28 00:06:00,55.5,52.0,29.79,WNW,290,3.0,-999.0,89,-99.99,,,0.00,weatherlink.com 1.10,2013-07-28 04:06:00,
2013-07-28 00:22:00,55.0,52.0,29.79,WNW,299,7.0,-999.0,89,-99.99,,,0.00,weatherlink.com 1.10,2013-07-28 04:22:00,
2013-07-28 00:37:00,55.2,52.0,29.79,WNW,292,6.0,-999.0,88,-99.99,,,0.00,weatherlink.com 1.10,2013-07-28 04:37:00,
2013-07-28 00:51:00,55.3,52.0,29.79,WNW,298,2.0,-999.0,87,-99.99,,,0.00,weatherlink.com 1.10,2013-07-28 04:51:00,
2013-07-28 01:22:00,55.1,52.0,29.79,NW,309,3.0,-999.0,88,-99.99,,,0.00,weatherlink.com 1.10,2013-07-28 05:22:00,
2013-07-28 01:37:00,54.8,52.0,29.79,NW,304,3.0,-999.0,90,-99.99,,,0.00,weatherlink.com 1.10,2013-07-28 05:37:00,
2013-07-28 01:52:00,54.0,51.0,29.79,WNW,283,4.0,-999.0,90,-99.99,,,0.00,weatherlink.com 1.10,2013-07-28 05:52:00,
2013-07-28 02:07:00,54.0,51.0,29.78,NW,316,5.0,-999.0,90,-99.99,,,0.00,weatherlink.com 1.10,2013-07-28 06:07:00,
2013-07-28 02:22:00,53.7,51.0,29.78,NW,315,3.0,-999.0,90,-99.99,,,0.00,weatherlink.com 1.10,2013-07-28 06:22:00,
2013-07-28 02:37:00,53.3,51.0,29.78,West,269,2.0,-999.0,90,-99.99,,,0.00,weatherlink.com 1.10,2013-07-28 06:37:00,
2013-07-28 02:52:00,53.1,51.0,29.78,WSW,242,2.0,-999.0,91,-99.99,,,0.00,weatherlink.com 1.10,2013-07-28 06:52:00,
2013-07-28 03:07:00,53.0,51.0,29.78,WNW,301,3.0,-999.0,92,-99.99,,,0.00,weatherlink.com 1.10,2013-07-28 07:07:00,
2013-07-28 03:22:00,52.6,50.0,29.78,WNW,299,3.0,-999.0,92,-99.99,,,0.00,weatherlink.com 1.10,2013-07-28 07:22:00,
2013-07-28 03:37:00,52.4,50.0,29.78,WNW,286,3.0,-999.0,92,-99.99,,,0.00,weatherlink.com 1.10,2013-07-28 07:37:00,
2013-07-28 03:52:00,52.3,50.0,29.78,NNW,327,4.0,-999.0,93,-99.99,,,0.00,weatherlink.com 1.10,2013-07-28 07:52:00,
2013-07-28 04:07:00,52.4,51.0,29.79,WSW,255,1.0,-999.0,93,-99.99,,,0.00,weatherlink.com 1.10,2013-07-28 08:07:00,
2013-07-28 04:22:00,52.4,51.0,29.79,NW,305,4.0,-999.0,93,-99.99,,,0.00,weatherlink.com 1.10,2013-07-28 08:22:00,
2013-07-28 04:37:00,52.6,51.0,29.79,SW,225,3.0,-999.0,93,-99.99,,,0.00,weatherlink.com 1.10,2013-07-28 08:37:00,
2013-07-28 04:52:00,52.6,51.0,29.79,SW,228,2.0,-999.0,93,-99.99,,,0.00,weatherlink.com 1.10,2013-07-28 08:52:00,
2013-07-28 05:07:00,52.6,51.0,29.78,WSW,243,3.0,-999.0,93,-99.99,,,0.00,weatherlink.com 1.10,2013-07-28 09:07:00,
2013-07-28 05:22:00,52.5,51.0,29.78,WSW,240,3.0,-999.0,93,-99.99,,,0.00,weatherlink.com 1.10,2013-07-28 09:22:00,
2013-07-28 05:37:00,52.5,51.0,29.79,WSW,241,0.0,-999.0,93,-99.99,,,0.00,weatherlink.com 1.10,2013-07-28 09:37:00,
2013-07-28 05:52:00,52.7,51.0,29.79,WSW,252,4.0,-999.0,93,-99.99,,,0.00,weatherlink.com 1.10,2013-07-28 09:52:00,
2013-07-28 06:07:00,53.1,51.0,29.79,WSW,242,5.0,-999.0,93,-99.99,,,0.00,weatherlink.com 1.10,2013-07-28 10:07:00,
2013-07-28 06:22:00,52.9,51.0,29.79,SW,235,4.0,-999.0,92,-99.99,,,0.00,weatherlink.com 1.10,2013-07-28 10:22:00,
2013-07-28 06:37:00,53.3,51.0,29.80,SW,234,4.0,-999.0,93,-99.99,,,0.00,weatherlink.com 1.10,2013-07-28 10:37:00,
2013-07-28 06:52:00,53.3,51.0,29.80,WSW,253,3.0,-999.0,93,-99.99,,,0.00,weatherlink.com 1.10,2013-07-28 10:52:00,
2013-07-28 07:07:00,53.4,52.0,29.80,WNW,296,6.0,-999.0,93,-99.99,,,0.00,weatherlink.com 1.10,2013-07-28 11:07:00,
2013-07-28 07:22:00,53.9,52.0,29.80,WSW,249,2.0,-999.0,93,-99.99,,,0.00,weatherlink.com 1.10,2013-07-28 11:22:00,
2013-07-28 07:37:00,53.9,52.0,29.81,WSW,241,6.0,-999.0,93,-99.99,,,0.00,weatherlink.com 1.10,2013-07-28 11:37:00,
2013-07-28 07:52:00,54.2,52.0,29.80,WSW,240,5.0,-999.0,93,-99.99,,,0.00,weatherlink.com 1.10,2013-07-28 11:52:00,
2013-07-28 08:07:00,54.6,52.0,29.81,NW,316,3.0,-999.0,92,-99.99,,,0.00,weatherlink.com 1.10,2013-07-28 12:07:00,
2013-07-28 08:22:00,54.9,52.0,29.81,WSW,239,4.0,-999.0,91,-99.99,,,0.00,weatherlink.com 1.10,2013-07-28 12:22:00,
2013-07-28 08:37:00,55.5,53.0,29.81,WSW,257,4.0,-999.0,91,-99.99,,,0.00,weatherlink.com 1.10,2013-07-28 12:37:00,
2013-07-28 08:52:00,55.8,53.0,29.81,SW,229,7.0,-999.0,90,-99.99,,,0.00,weatherlink.com 1.10,2013-07-28 12:52:00,
2013-07-28 09:07:00,56.0,53.0,29.82,WSW,245,7.0,-999.0,89,-99.99,,,0.00,weatherlink.com 1.10,2013-07-28 13:07:00,
2013-07-28 09:22:00,56.4,53.0,29.82,West,276,5.0,-999.0,89,-99.99,,,0.00,weatherlink.com 1.10,2013-07-28 13:22:00,
2013-07-28 09:37:00,56.2,53.0,29.82,WSW,250,6.0,-999.0,90,-99.99,,,0.00,weatherlink.com 1.10,2013-07-28 13:37:00,
2013-07-28 09:52:00,56.0,54.0,29.82,WNW,301,3.0,-999.0,91,-99.99,,,0.00,weatherlink.com 1.10,2013-07-28 13:52:00,
2013-07-28 10:07:00,56.7,53.0,29.82,NNW,329,6.0,-999.0,88,-99.99,,,0.00,weatherlink.com 1.10,2013-07-28 14:07:00,
2013-07-28 10:22:00,57.3,54.0,29.82,SW,236,4.0,-999.0,87,-99.99,,,0.00,weatherlink.com 1.10,2013-07-28 14:22:00,
2013-07-28 10:37:00,57.6,54.0,29.82,NNW,336,4.0,-999.0,86,-99.99,,,0.00,weatherlink.com 1.10,2013-07-28 14:37:00,
2013-07-28 10:52:00,57.6,53.0,29.82,NW,325,6.0,-999.0,85,-99.99,,,0.00,weatherlink.com 1.10,2013-07-28 14:52:00,
2013-07-28 11:07:00,57.6,53.0,29.82,NW,311,8.0,-999.0,84,-99.99,,,0.00,weatherlink.com 1.10,2013-07-28 15:07:00,
2013-07-28 11:22:00,58.0,53.0,29.83,WNW,289,11.0,-999.0,82,-99.99,,,0.00,weatherlink.com 1.10,2013-07-28 15:22:00,
2013-07-28 11:38:00,58.2,53.0,29.82,WNW,291,13.0,-999.0,83,-99.99,,,0.00,weatherlink.com 1.10,2013-07-28 15:38:00,
2013-07-28 11:53:00,58.5,53.0,29.83,WNW,284,4.0,-999.0,82,-99.99,,,0.00,weatherlink.com 1.10,2013-07-28 15:53:00,
2013-07-28 12:08:00,58.5,53.0,29.83,WSW,245,13.0,-999.0,81,-99.99,,,0.01,weatherlink.com 1.10,2013-07-28 16:08:00,
2013-07-28 12:37:00,59.2,54.0,29.82,NW,305,9.0,-999.0,82,-99.99,,,0.01,weatherlink.com 1.10,2013-07-28 16:37:00,
2013-07-28 13:17:00,58.0,54.0,29.83,SW,221,2.0,-999.0,87,-99.99,,,0.01,weatherlink.com 1.10,2013-07-28 17:17:00,
2013-07-28 13:23:00,58.8,54.0,29.83,SW,226,5.0,-999.0,85,-99.99,,,0.01,weatherlink.com 1.10,2013-07-28 17:23:00,
2013-07-28 13:39:00,60.2,55.0,29.83,WNW,289,3.0,-999.0,84,-99.99,,,0.01,weatherlink.com 1.10,2013-07-28 17:39:00,
2013-07-28 13:54:00,60.7,55.0,29.82,SW,217,4.0,-999.0,80,-99.99,,,0.01,weatherlink.com 1.10,2013-07-28 17:54:00,
2013-07-28 14:09:00,60.8,55.0,29.82,WNW,282,3.0,-999.0,81,-99.99,,,0.01,weatherlink.com 1.10,2013-07-28 18:09:00,
2013-07-28 14:24:00,62.2,55.0,29.82,WNW,284,7.0,-999.0,76,-99.99,,,0.01,weatherlink.com 1.10,2013-07-28 18:24:00,
2013-07-28 14:39:00,62.5,54.0,29.82,WSW,248,10.0,-999.0,74,-99.99,,,0.01,weatherlink.com 1.10,2013-07-28 18:39:00,
2013-07-28 14:54:00,62.3,54.0,29.83,NW,323,7.0,-999.0,75,-99.99,,,0.01,weatherlink.com 1.10,2013-07-28 18:54:00,
2013-07-28 15:09:00,60.7,55.0,29.83,NNW,348,3.0,-999.0,81,-99.99,,,0.01,weatherlink.com 1.10,2013-07-28 19:09:00,
2013-07-28 15:24:00,58.0,54.0,29.84,NW,311,6.0,-999.0,86,-99.99,,,0.06,weatherlink.com 1.10,2013-07-28 19:24:00,
2013-07-28 15:39:00,57.9,54.0,29.84,NW,313,6.0,-999.0,88,-99.99,,,0.07,weatherlink.com 1.10,2013-07-28 19:39:00,
2013-07-28 15:54:00,58.9,56.0,29.84,SW,215,2.0,-999.0,89,-99.99,,,0.07,weatherlink.com 1.10,2013-07-28 19:54:00,
2013-07-28 16:09:00,59.7,56.0,29.84,East,81,1.0,-999.0,88,-99.99,,,0.07,weatherlink.com 1.10,2013-07-28 20:09:00,
2013-07-28 16:24:00,59.5,55.0,29.85,WNW,298,4.0,-999.0,84,-99.99,,,0.07,weatherlink.com 1.10,2013-07-28 20:24:00,
2013-07-28 16:39:00,60.7,55.0,29.85,NW,307,9.0,-999.0,81,-99.99,,,0.07,weatherlink.com 1.10,2013-07-28 20:39:00,
2013-07-28 16:54:00,62.3,56.0,29.85,WSW,239,5.0,-999.0,80,-99.99,,,0.07,weatherlink.com 1.10,2013-07-28 20:54:00,
2013-07-28 17:09:00,62.2,57.0,29.85,WNW,289,6.0,-999.0,82,-99.99,,,0.07,weatherlink.com 1.10,2013-07-28 21:09:00,
2013-07-28 17:24:00,61.1,57.0,29.85,WNW,286,9.0,-999.0,86,-99.99,,,0.07,weatherlink.com 1.10,2013-07-28 21:24:00,
2013-07-28 17:39:00,61.5,57.0,29.86,WNW,296,4.0,-999.0,84,-99.99,,,0.07,weatherlink.com 1.10,2013-07-28 21:39:00,
2013-07-28 17:54:00,62.1,57.0,29.86,WNW,298,11.0,-999.0,82,-99.99,,,0.07,weatherlink.com 1.10,2013-07-28 21:54:00,
2013-07-28 18:09:00,61.8,56.0,29.86,WSW,240,5.0,-999.0,82,-99.99,,,0.07,weatherlink.com 1.10,2013-07-28 22:09:00,
2013-07-28 18:24:00,62.7,56.0,29.86,North,350,5.0,-999.0,80,-99.99,,,0.07,weatherlink.com 1.10,2013-07-28 22:24:00,
2013-07-28 18:39:00,62.9,55.0,29.86,NNE,12,3.0,-999.0,75,-99.99,,,0.07,weatherlink.com 1.10,2013-07-28 22:39:00,
2013-07-28 18:54:00,63.2,56.0,29.87,WNW,295,6.0,-999.0,76,-99.99,,,0.07,weatherlink.com 1.10,2013-07-28 22:54:00,
2013-07-28 19:09:00,63.7,55.0,29.87,WNW,289,11.0,-999.0,73,-99.99,,,0.07,weatherlink.com 1.10,2013-07-28 23:09:00,
2013-07-28 19:24:00,63.4,55.0,29.88,NW,315,6.0,-999.0,73,-99.99,,,0.07,weatherlink.com 1.10,2013-07-28 23:24:00,
2013-07-28 19:39:00,63.0,55.0,29.89,NW,321,8.0,-999.0,74,-99.99,,,0.07,weatherlink.com 1.10,2013-07-28 23:39:00,
2013-07-28 19:54:00,62.5,54.0,29.89,NW,322,10.0,-999.0,74,-99.99,,,0.07,weatherlink.com 1.10,2013-07-28 23:54:00,
2013-07-28 20:09:00,62.3,55.0,29.89,WNW,292,8.0,-999.0,76,-99.99,,,0.07,weatherlink.com 1.10,2013-07-29 00:09:00,
2013-07-28 20:24:00,62.0,54.0,29.90,WNW,293,4.0,-999.0,75,-99.99,,,0.07,weatherlink.com 1.10,2013-07-29 00:24:00,
2013-07-28 20:39:00,61.1,54.0,29.90,WNW,286,5.0,-999.0,76,-99.99,,,0.07,weatherlink.com 1.10,2013-07-29 00:39:00,
2013-07-28 20:54:00,60.9,54.0,29.91,WNW,290,3.0,-999.0,78,-99.99,,,0.07,weatherlink.com 1.10,2013-07-29 00:54:00,
2013-07-28 21:09:00,60.3,54.0,29.91,WNW,300,3.0,-999.0,80,-99.99,,,0.07,weatherlink.com 1.10,2013-07-29 01:09:00,
2013-07-28 21:24:00,60.2,54.0,29.91,WNW,297,5.0,-999.0,81,-99.99,,,0.07,weatherlink.com 1.10,2013-07-29 01:24:00,
2013-07-28 21:39:00,59.8,54.0,29.92,WNW,282,5.0,-999.0,81,-99.99,,,0.07,weatherlink.com 1.10,2013-07-29 01:39:00,
2013-07-28 21:54:00,59.3,54.0,29.92,WNW,295,0.0,-999.0,82,-99.99,,,0.07,weatherlink.com 1.10,2013-07-29 01:54:00,
2013-07-28 22:39:00,58.5,54.0,29.93,NW,311,6.0,-999.0,84,-99.99,,,0.07,weatherlink.com 1.10,2013-07-29 02:39:00,
2013-07-28 22:54:00,58.1,54.0,29.93,West,262,2.0,-999.0,85,-99.99,,,0.07,weatherlink.com 1.10,2013-07-29 02:54:00,
2013-07-28 23:24:00,57.8,54.0,29.93,NW,309,5.0,-999.0,86,-99.99,,,0.07,weatherlink.com 1.10,2013-07-29 03:24:00,
2013-07-28 23:39:00,57.7,54.0,29.93,WNW,301,3.0,-999.0,86,-99.99,,,0.07,weatherlink.com 1.10,2013-07-29 03:39:00,
2013-07-28 23:54:00,57.7,54.0,29.93,West,274,3.0,-999.0,87,-99.99,,,0.07,weatherlink.com 1.10,2013-07-29 03:54:00,